sensor_id;sensor_type;location;lat;lon;timestamp;pressure;altitude;pressure_sealevel;temperature;humidity
56514;BME280;62152;52.078;8.414;2023-01-31T00:00:33;100668.22;;;16.71;60.24
56514;BME280;62152;52.078;8.414;2023-01-31T00:04:34;100667.41;;;16.70;60.04
56514;BME280;62152;52.078;8.414;2023-01-31T00:08:36;100669.38;;;16.70;59.97
56514;BME280;62152;52.078;8.414;2023-01-31T00:12:37;100678.69;;;16.68;59.80
56514;BME280;62152;52.078;8.414;2023-01-31T00:16:38;100672.44;;;16.68;59.72
56514;BME280;62152;52.078;8.414;2023-01-31T00:20:39;100679.50;;;16.69;59.68
56514;BME280;62152;52.078;8.414;2023-01-31T00:24:41;100680.31;;;16.70;59.55
56514;BME280;62152;52.078;8.414;2023-01-31T00:28:44;100677.06;;;16.67;59.57
56514;BME280;62152;52.078;8.414;2023-01-31T00:32:45;100674.34;;;16.67;59.59
56514;BME280;62152;52.078;8.414;2023-01-31T00:36:46;100668.41;;;16.65;59.61
56514;BME280;62152;52.078;8.414;2023-01-31T00:40:52;100673.53;;;16.67;59.70
56514;BME280;62152;52.078;8.414;2023-01-31T00:44:54;100676.63;;;16.65;59.84
56514;BME280;62152;52.078;8.414;2023-01-31T00:48:56;100698.53;;;16.65;59.58
56514;BME280;62152;52.078;8.414;2023-01-31T00:52:56;100688.38;;;16.66;59.76
56514;BME280;62152;52.078;8.414;2023-01-31T00:57:00;100691.47;;;16.64;59.62
56514;BME280;62152;52.078;8.414;2023-01-31T01:01:05;100686.78;;;16.65;59.26
56514;BME280;62152;52.078;8.414;2023-01-31T01:05:08;100673.09;;;16.65;59.76
56514;BME280;62152;52.078;8.414;2023-01-31T01:09:09;100669.91;;;16.63;59.34
56514;BME280;62152;52.078;8.414;2023-01-31T01:13:11;100678.91;;;16.63;59.39
56514;BME280;62152;52.078;8.414;2023-01-31T01:17:12;100700.84;;;16.63;59.39
56514;BME280;62152;52.078;8.414;2023-01-31T01:21:16;100701.97;;;16.62;59.46
56514;BME280;62152;52.078;8.414;2023-01-31T01:25:19;100696.50;;;16.62;59.62
56514;BME280;62152;52.078;8.414;2023-01-31T01:29:21;100697.31;;;16.63;59.37
56514;BME280;62152;52.078;8.414;2023-01-31T01:33:23;100714.88;;;16.62;59.74
56514;BME280;62152;52.078;8.414;2023-01-31T01:37:24;100694.91;;;16.61;59.74
56514;BME280;62152;52.078;8.414;2023-01-31T01:41:25;100708.59;;;16.61;59.57
56514;BME280;62152;52.078;8.414;2023-01-31T01:45:27;100714.88;;;16.62;59.37
56514;BME280;62152;52.078;8.414;2023-01-31T01:49:33;100712.94;;;16.62;59.42
56514;BME280;62152;52.078;8.414;2023-01-31T01:53:40;100715.19;;;16.60;59.15
56514;BME280;62152;52.078;8.414;2023-01-31T01:57:47;100712.47;;;16.60;59.25
56514;BME280;62152;52.078;8.414;2023-01-31T02:01:55;100710.88;;;16.59;59.41
56514;BME280;62152;52.078;8.414;2023-01-31T02:06:01;100717.94;;;16.60;59.41
56514;BME280;62152;52.078;8.414;2023-01-31T02:10:12;100716.34;;;16.59;59.38
56514;BME280;62152;52.078;8.414;2023-01-31T02:14:20;100720.69;;;16.60;59.38
56514;BME280;62152;52.078;8.414;2023-01-31T02:18:24;100732.78;;;16.59;59.34
56514;BME280;62152;52.078;8.414;2023-01-31T02:22:32;100725.72;;;16.58;59.30
56514;BME280;62152;52.078;8.414;2023-01-31T02:27:06;100742.13;;;16.58;59.53
56514;BME280;62152;52.078;8.414;2023-01-31T02:32:09;100738.25;;;16.59;59.16
56514;BME280;62152;52.078;8.414;2023-01-31T02:36:41;100761.75;;;16.60;59.02
56514;BME280;62152;52.078;8.414;2023-01-31T02:41:04;100753.09;;;16.58;59.04
56514;BME280;62152;52.078;8.414;2023-01-31T02:45:22;100751.94;;;16.59;59.37
56514;BME280;62152;52.078;8.414;2023-01-31T02:49:39;100747.63;;;16.58;58.96
56514;BME280;62152;52.078;8.414;2023-01-31T02:53:58;100764.03;;;16.58;59.28
56514;BME280;62152;52.078;8.414;2023-01-31T02:58:07;100747.97;;;16.57;59.00
56514;BME280;62152;52.078;8.414;2023-01-31T03:02:12;100746.03;;;16.57;59.30
56514;BME280;62152;52.078;8.414;2023-01-31T03:06:45;100740.53;;;16.57;58.94
56514;BME280;62152;52.078;8.414;2023-01-31T03:10:59;100746.03;;;16.57;58.85
56514;BME280;62152;52.078;8.414;2023-01-31T03:19:45;100730.38;;;16.58;58.82
56514;BME280;62152;52.078;8.414;2023-01-31T03:23:55;100720.56;;;16.57;59.21
56514;BME280;62152;52.078;8.414;2023-01-31T03:28:01;100712.72;;;16.55;59.20
56514;BME280;62152;52.078;8.414;2023-01-31T03:32:18;100699.03;;;16.55;58.73
56514;BME280;62152;52.078;8.414;2023-01-31T03:36:30;100704.50;;;16.55;58.81
56514;BME280;62152;52.078;8.414;2023-01-31T03:41:09;100684.53;;;16.55;59.32
56514;BME280;62152;52.078;8.414;2023-01-31T03:45:18;100679.84;;;16.55;58.98
56514;BME280;62152;52.078;8.414;2023-01-31T03:49:28;100670.03;;;16.54;58.61
56514;BME280;62152;52.078;8.414;2023-01-31T03:53:36;100668.91;;;16.55;59.00
56514;BME280;62152;52.078;8.414;2023-01-31T03:57:47;100671.97;;;16.54;59.04
56514;BME280;62152;52.078;8.414;2023-01-31T04:01:55;100678.25;;;16.54;59.05
56514;BME280;62152;52.078;8.414;2023-01-31T04:05:58;100662.94;;;16.53;58.65
56514;BME280;62152;52.078;8.414;2023-01-31T04:10:00;100669.22;;;16.54;58.86
56514;BME280;62152;52.078;8.414;2023-01-31T04:14:02;100662.94;;;16.53;58.75
56514;BME280;62152;52.078;8.414;2023-01-31T04:18:03;100666.47;;;16.54;58.93
56514;BME280;62152;52.078;8.414;2023-01-31T04:22:04;100662.94;;;16.53;58.90
56514;BME280;62152;52.078;8.414;2023-01-31T04:26:05;100679.50;;;16.57;58.87
56514;BME280;62152;52.078;8.414;2023-01-31T04:30:09;100672.44;;;16.56;58.77
56514;BME280;62152;52.078;8.414;2023-01-31T04:34:10;100677.13;;;16.55;58.67
56514;BME280;62152;52.078;8.414;2023-01-31T04:38:11;100666.47;;;16.54;58.77
56514;BME280;62152;52.078;8.414;2023-01-31T04:42:13;100659.88;;;16.55;58.46
56514;BME280;62152;52.078;8.414;2023-01-31T04:46:15;100664.56;;;16.54;58.68
56514;BME280;62152;52.078;8.414;2023-01-31T04:50:16;100659.88;;;16.55;58.62
56514;BME280;62152;52.078;8.414;2023-01-31T04:54:17;100658.63;;;16.52;58.46
56514;BME280;62152;52.078;8.414;2023-01-31T04:58:18;100656.66;;;16.53;58.42
56514;BME280;62152;52.078;8.414;2023-01-31T05:02:20;100641.75;;;16.50;58.76
56514;BME280;62152;52.078;8.414;2023-01-31T05:06:22;100639.91;;;16.54;54.18
56514;BME280;62152;52.078;8.414;2023-01-31T05:10:23;100640.63;;;16.14;54.89
56514;BME280;62152;52.078;8.414;2023-01-31T05:14:24;100638.13;;;16.34;53.61
56514;BME280;62152;52.078;8.414;2023-01-31T05:18:26;100617.19;;;16.54;53.23
56514;BME280;62152;52.078;8.414;2023-01-31T05:22:27;100614.00;;;16.52;53.59
56514;BME280;62152;52.078;8.414;2023-01-31T05:26:28;100606.84;;;16.47;54.36
56514;BME280;62152;52.078;8.414;2023-01-31T05:30:29;100603.75;;;16.49;55.21
56514;BME280;62152;52.078;8.414;2023-01-31T05:34:31;100583.81;;;16.48;54.82
56514;BME280;62152;52.078;8.414;2023-01-31T05:38:32;100595.91;;;16.47;54.87
56514;BME280;62152;52.078;8.414;2023-01-31T05:42:33;100593.47;;;16.46;54.79
56514;BME280;62152;52.078;8.414;2023-01-31T05:46:34;100589.16;;;16.45;55.02
56514;BME280;62152;52.078;8.414;2023-01-31T05:50:36;100587.22;;;16.45;55.50
56514;BME280;62152;52.078;8.414;2023-01-31T05:54:43;100588.34;;;16.44;55.95
56514;BME280;62152;52.078;8.414;2023-01-31T05:58:43;100585.97;;;16.42;55.36
56514;BME280;62152;52.078;8.414;2023-01-31T06:02:44;100587.56;;;16.44;56.20
56514;BME280;62152;52.078;8.414;2023-01-31T06:06:47;100590.28;;;16.44;55.93
56514;BME280;62152;52.078;8.414;2023-01-31T06:10:47;100571.94;;;16.44;56.08
56514;BME280;62152;52.078;8.414;2023-01-31T06:15:25;100569.53;;;16.42;56.02
56514;BME280;62152;52.078;8.414;2023-01-31T06:19:26;100571.50;;;16.42;56.08
56514;BME280;62152;52.078;8.414;2023-01-31T06:23:29;100566.00;;;16.42;56.13
56514;BME280;62152;52.078;8.414;2023-01-31T06:27:30;100564.06;;;16.42;56.67
56514;BME280;62152;52.078;8.414;2023-01-31T06:31:31;100559.38;;;16.43;56.56
56514;BME280;62152;52.078;8.414;2023-01-31T06:35:32;100565.22;;;16.41;56.33
56514;BME280;62152;52.078;8.414;2023-01-31T06:39:35;100564.75;;;16.39;56.46
56514;BME280;62152;52.078;8.414;2023-01-31T06:43:35;100554.59;;;16.40;56.52
56514;BME280;62152;52.078;8.414;2023-01-31T06:47:36;100551.53;;;16.41;56.44
56514;BME280;62152;52.078;8.414;2023-01-31T06:51:37;100569.09;;;16.40;56.37
56514;BME280;62152;52.078;8.414;2023-01-31T06:55:45;66444.38;;;-146.75;100.00
56514;BME280;62152;52.078;8.414;2023-01-31T06:59:46;66444.38;;;-146.75;100.00
56514;BME280;62152;52.078;8.414;2023-01-31T07:03:47;66444.38;;;-146.75;100.00
56514;BME280;62152;52.078;8.414;2023-01-31T07:07:48;66444.38;;;-146.75;100.00
56514;BME280;62152;52.078;8.414;2023-01-31T07:11:50;66444.38;;;-146.75;100.00
56514;BME280;62152;52.078;8.414;2023-01-31T07:15:50;66444.38;;;-146.75;100.00
56514;BME280;62152;52.078;8.414;2023-01-31T07:19:51;66444.38;;;-146.75;100.00
56514;BME280;62152;52.078;8.414;2023-01-31T07:23:52;66444.38;;;-146.75;100.00
56514;BME280;62152;52.078;8.414;2023-01-31T07:27:54;66444.38;;;-146.75;100.00
56514;BME280;62152;52.078;8.414;2023-01-31T07:31:55;66444.38;;;-146.75;100.00
56514;BME280;62152;52.078;8.414;2023-01-31T07:35:56;66444.38;;;-146.75;100.00
56514;BME280;62152;52.078;8.414;2023-01-31T07:39:57;66444.38;;;-146.75;100.00
56514;BME280;62152;52.078;8.414;2023-01-31T07:43:59;66444.38;;;-146.75;100.00
56514;BME280;62152;52.078;8.414;2023-01-31T07:47:59;66444.38;;;-146.75;100.00
56514;BME280;62152;52.078;8.414;2023-01-31T07:52:00;66444.38;;;-146.75;100.00
56514;BME280;62152;52.078;8.414;2023-01-31T07:56:05;66444.38;;;-146.75;100.00
56514;BME280;62152;52.078;8.414;2023-01-31T08:00:09;66444.38;;;-146.75;100.00
56514;BME280;62152;52.078;8.414;2023-01-31T08:04:13;66444.38;;;-146.75;100.00
56514;BME280;62152;52.078;8.414;2023-01-31T08:08:14;66444.38;;;-146.75;100.00
56514;BME280;62152;52.078;8.414;2023-01-31T08:12:15;66444.38;;;-146.75;100.00
56514;BME280;62152;52.078;8.414;2023-01-31T08:16:18;66444.38;;;-146.75;100.00
56514;BME280;62152;52.078;8.414;2023-01-31T08:20:18;66444.38;;;-146.75;100.00
56514;BME280;62152;52.078;8.414;2023-01-31T08:24:19;66444.38;;;-146.75;100.00
56514;BME280;62152;52.078;8.414;2023-01-31T08:28:20;66444.38;;;-146.75;100.00
56514;BME280;62152;52.078;8.414;2023-01-31T08:32:22;66444.38;;;-146.75;100.00
56514;BME280;62152;52.078;8.414;2023-01-31T08:36:25;66444.38;;;-146.75;100.00
56514;BME280;62152;52.078;8.414;2023-01-31T08:40:26;66444.38;;;-146.75;100.00
56514;BME280;62152;52.078;8.414;2023-01-31T08:44:27;66444.38;;;-146.75;100.00
56514;BME280;62152;52.078;8.414;2023-01-31T08:48:31;66444.38;;;-146.75;100.00
56514;BME280;62152;52.078;8.414;2023-01-31T08:52:31;66444.38;;;-146.75;100.00
56514;BME280;62152;52.078;8.414;2023-01-31T08:56:32;66444.38;;;-146.75;100.00
56514;BME280;62152;52.078;8.414;2023-01-31T09:00:33;66444.38;;;-146.75;100.00
56514;BME280;62152;52.078;8.414;2023-01-31T09:04:35;66444.38;;;-146.75;100.00
56514;BME280;62152;52.078;8.414;2023-01-31T09:08:36;66444.38;;;-146.75;100.00
56514;BME280;62152;52.078;8.414;2023-01-31T09:12:36;66444.38;;;-146.75;100.00
56514;BME280;62152;52.078;8.414;2023-01-31T09:16:37;66444.38;;;-146.75;100.00
56514;BME280;62152;52.078;8.414;2023-01-31T09:20:39;66444.38;;;-146.75;100.00
56514;BME280;62152;52.078;8.414;2023-01-31T09:24:40;66444.38;;;-146.75;100.00
56514;BME280;62152;52.078;8.414;2023-01-31T09:28:41;66444.38;;;-146.75;100.00
56514;BME280;62152;52.078;8.414;2023-01-31T09:32:42;66444.38;;;-146.75;100.00
56514;BME280;62152;52.078;8.414;2023-01-31T09:36:44;66444.38;;;-146.75;100.00
56514;BME280;62152;52.078;8.414;2023-01-31T09:40:45;66444.38;;;-146.75;100.00
56514;BME280;62152;52.078;8.414;2023-01-31T09:44:58;66444.38;;;-146.75;100.00
56514;BME280;62152;52.078;8.414;2023-01-31T09:49:03;66444.38;;;-146.75;100.00
56514;BME280;62152;52.078;8.414;2023-01-31T09:53:11;66444.38;;;-146.75;100.00
56514;BME280;62152;52.078;8.414;2023-01-31T09:57:25;66444.38;;;-146.75;100.00
56514;BME280;62152;52.078;8.414;2023-01-31T10:01:36;66444.38;;;-146.75;100.00
56514;BME280;62152;52.078;8.414;2023-01-31T10:05:44;66444.38;;;-146.75;100.00
56514;BME280;62152;52.078;8.414;2023-01-31T10:09:54;66444.38;;;-146.75;100.00
56514;BME280;62152;52.078;8.414;2023-01-31T10:14:03;66444.38;;;-146.75;100.00
56514;BME280;62152;52.078;8.414;2023-01-31T10:18:13;66444.38;;;-146.75;100.00
56514;BME280;62152;52.078;8.414;2023-01-31T10:22:22;66444.38;;;-146.75;100.00
56514;BME280;62152;52.078;8.414;2023-01-31T10:26:29;66444.38;;;-146.75;100.00
56514;BME280;62152;52.078;8.414;2023-01-31T10:30:40;66444.38;;;-146.75;100.00
56514;BME280;62152;52.078;8.414;2023-01-31T10:34:46;66444.38;;;-146.75;100.00
56514;BME280;62152;52.078;8.414;2023-01-31T10:38:59;66444.38;;;-146.75;100.00
56514;BME280;62152;52.078;8.414;2023-01-31T10:43:13;66444.38;;;-146.75;100.00
56514;BME280;62152;52.078;8.414;2023-01-31T10:47:17;66444.38;;;-146.75;100.00
56514;BME280;62152;52.078;8.414;2023-01-31T10:51:37;66444.38;;;-146.75;100.00
56514;BME280;62152;52.078;8.414;2023-01-31T10:55:56;66444.38;;;-146.75;100.00
56514;BME280;62152;52.078;8.414;2023-01-31T11:00:00;66444.38;;;-146.75;100.00
56514;BME280;62152;52.078;8.414;2023-01-31T11:04:23;66444.38;;;-146.75;100.00
56514;BME280;62152;52.078;8.414;2023-01-31T11:08:30;66444.38;;;-146.75;100.00
56514;BME280;62152;52.078;8.414;2023-01-31T11:12:40;66444.38;;;-146.75;100.00
56514;BME280;62152;52.078;8.414;2023-01-31T11:16:44;66444.38;;;-146.75;100.00
56514;BME280;62152;52.078;8.414;2023-01-31T11:20:46;66444.38;;;-146.75;100.00
56514;BME280;62152;52.078;8.414;2023-01-31T11:24:48;66444.38;;;-146.75;100.00
56514;BME280;62152;52.078;8.414;2023-01-31T11:28:51;66444.38;;;-146.75;100.00
56514;BME280;62152;52.078;8.414;2023-01-31T11:32:54;66444.38;;;-146.75;100.00
56514;BME280;62152;52.078;8.414;2023-01-31T11:37:03;66444.38;;;-146.75;100.00
56514;BME280;62152;52.078;8.414;2023-01-31T11:41:26;66444.38;;;-146.75;100.00
56514;BME280;62152;52.078;8.414;2023-01-31T11:45:30;66444.38;;;-146.75;100.00
56514;BME280;62152;52.078;8.414;2023-01-31T11:49:37;66444.38;;;-146.75;100.00
56514;BME280;62152;52.078;8.414;2023-01-31T11:53:48;66444.38;;;-146.75;100.00
56514;BME280;62152;52.078;8.414;2023-01-31T11:57:56;66444.38;;;-146.75;100.00
56514;BME280;62152;52.078;8.414;2023-01-31T12:01:59;66444.38;;;-146.75;100.00
56514;BME280;62152;52.078;8.414;2023-01-31T12:06:06;66444.38;;;-146.75;100.00
56514;BME280;62152;52.078;8.414;2023-01-31T12:10:33;66444.38;;;-146.75;100.00
56514;BME280;62152;52.078;8.414;2023-01-31T12:14:39;66444.38;;;-146.75;100.00
56514;BME280;62152;52.078;8.414;2023-01-31T12:18:53;66444.38;;;-146.75;100.00
56514;BME280;62152;52.078;8.414;2023-01-31T12:23:09;66444.38;;;-146.75;100.00
56514;BME280;62152;52.078;8.414;2023-01-31T12:27:24;66444.38;;;-146.75;100.00
56514;BME280;62152;52.078;8.414;2023-01-31T12:31:41;66444.38;;;-146.75;100.00
56514;BME280;62152;52.078;8.414;2023-01-31T12:36:08;66444.38;;;-146.75;100.00
56514;BME280;62152;52.078;8.414;2023-01-31T12:44:50;66444.38;;;-146.75;100.00
56514;BME280;62152;52.078;8.414;2023-01-31T12:49:32;66444.38;;;-146.75;100.00
56514;BME280;62152;52.078;8.414;2023-01-31T12:53:49;66444.38;;;-146.75;100.00
56514;BME280;62152;52.078;8.414;2023-01-31T12:58:15;66444.38;;;-146.75;100.00
56514;BME280;62152;52.078;8.414;2023-01-31T13:02:35;66444.38;;;-146.75;100.00
56514;BME280;62152;52.078;8.414;2023-01-31T13:06:43;66444.38;;;-146.75;100.00
56514;BME280;62152;52.078;8.414;2023-01-31T13:10:51;66444.38;;;-146.75;100.00
56514;BME280;62152;52.078;8.414;2023-01-31T13:15:02;66444.38;;;-146.75;100.00
56514;BME280;62152;52.078;8.414;2023-01-31T13:19:12;66444.38;;;-146.75;100.00
56514;BME280;62152;52.078;8.414;2023-01-31T13:23:21;66444.38;;;-146.75;100.00
56514;BME280;62152;52.078;8.414;2023-01-31T13:27:28;66444.38;;;-146.75;100.00
56514;BME280;62152;52.078;8.414;2023-01-31T13:31:39;66444.38;;;-146.75;100.00
56514;BME280;62152;52.078;8.414;2023-01-31T13:35:44;66444.38;;;-146.75;100.00
56514;BME280;62152;52.078;8.414;2023-01-31T13:39:51;66444.38;;;-146.75;100.00
56514;BME280;62152;52.078;8.414;2023-01-31T13:43:54;66444.38;;;-146.75;100.00
56514;BME280;62152;52.078;8.414;2023-01-31T13:48:01;66444.38;;;-146.75;100.00
56514;BME280;62152;52.078;8.414;2023-01-31T13:52:11;66444.38;;;-146.75;100.00
56514;BME280;62152;52.078;8.414;2023-01-31T13:56:22;66444.38;;;-146.75;100.00
56514;BME280;62152;52.078;8.414;2023-01-31T14:00:37;66444.38;;;-146.75;100.00
56514;BME280;62152;52.078;8.414;2023-01-31T14:04:39;66444.38;;;-146.75;100.00
56514;BME280;62152;52.078;8.414;2023-01-31T14:08:56;66444.38;;;-146.75;100.00
56514;BME280;62152;52.078;8.414;2023-01-31T14:13:22;66444.38;;;-146.75;100.00
56514;BME280;62152;52.078;8.414;2023-01-31T14:17:57;66444.38;;;-146.75;100.00
56514;BME280;62152;52.078;8.414;2023-01-31T14:22:13;66444.38;;;-146.75;100.00
56514;BME280;62152;52.078;8.414;2023-01-31T14:26:48;66444.38;;;-146.75;100.00
56514;BME280;62152;52.078;8.414;2023-01-31T14:30:50;66444.38;;;-146.75;100.00
56514;BME280;62152;52.078;8.414;2023-01-31T14:34:51;66444.38;;;-146.75;100.00
56514;BME280;62152;52.078;8.414;2023-01-31T14:39:24;66444.38;;;-146.75;100.00
56514;BME280;62152;52.078;8.414;2023-01-31T14:43:46;66444.38;;;-146.75;100.00
56514;BME280;62152;52.078;8.414;2023-01-31T14:48:06;66444.38;;;-146.75;100.00
56514;BME280;62152;52.078;8.414;2023-01-31T14:52:33;66444.38;;;-146.75;100.00
56514;BME280;62152;52.078;8.414;2023-01-31T14:56:51;66444.38;;;-146.75;100.00
56514;BME280;62152;52.078;8.414;2023-01-31T15:00:55;66444.38;;;-146.75;100.00
56514;BME280;62152;52.078;8.414;2023-01-31T15:05:00;66444.38;;;-146.75;100.00
56514;BME280;62152;52.078;8.414;2023-01-31T15:09:26;66444.38;;;-146.75;100.00
56514;BME280;62152;52.078;8.414;2023-01-31T15:13:55;66444.38;;;-146.75;100.00
56514;BME280;62152;52.078;8.414;2023-01-31T15:18:00;66444.38;;;-146.75;100.00
56514;BME280;62152;52.078;8.414;2023-01-31T15:22:06;66444.38;;;-146.75;100.00
56514;BME280;62152;52.078;8.414;2023-01-31T15:26:08;66444.38;;;-146.75;100.00
56514;BME280;62152;52.078;8.414;2023-01-31T15:30:17;66444.38;;;-146.75;100.00
56514;BME280;62152;52.078;8.414;2023-01-31T15:34:24;66444.38;;;-146.75;100.00
56514;BME280;62152;52.078;8.414;2023-01-31T15:38:32;66444.38;;;-146.75;100.00
56514;BME280;62152;52.078;8.414;2023-01-31T15:42:33;66444.38;;;-146.75;100.00
56514;BME280;62152;52.078;8.414;2023-01-31T15:46:35;66444.38;;;-146.75;100.00
56514;BME280;62152;52.078;8.414;2023-01-31T15:50:36;66444.38;;;-146.75;100.00
56514;BME280;62152;52.078;8.414;2023-01-31T15:54:37;66444.38;;;-146.75;100.00
56514;BME280;62152;52.078;8.414;2023-01-31T15:58:39;66444.38;;;-146.75;100.00
56514;BME280;62152;52.078;8.414;2023-01-31T16:02:41;66444.38;;;-146.75;100.00
56514;BME280;62152;52.078;8.414;2023-01-31T16:06:42;66444.38;;;-146.75;100.00
56514;BME280;62152;52.078;8.414;2023-01-31T16:10:46;66444.38;;;-146.75;100.00
56514;BME280;62152;52.078;8.414;2023-01-31T16:14:49;66444.38;;;-146.75;100.00
56514;BME280;62152;52.078;8.414;2023-01-31T16:18:56;66444.38;;;-146.75;100.00
56514;BME280;62152;52.078;8.414;2023-01-31T16:22:58;66444.38;;;-146.75;100.00
56514;BME280;62152;52.078;8.414;2023-01-31T16:27:00;66444.38;;;-146.75;100.00
56514;BME280;62152;52.078;8.414;2023-01-31T16:31:04;66444.38;;;-146.75;100.00
56514;BME280;62152;52.078;8.414;2023-01-31T16:35:19;66444.38;;;-146.75;100.00
56514;BME280;62152;52.078;8.414;2023-01-31T16:39:31;66444.38;;;-146.75;100.00
56514;BME280;62152;52.078;8.414;2023-01-31T16:43:34;66444.38;;;-146.75;100.00
56514;BME280;62152;52.078;8.414;2023-01-31T16:47:47;66444.38;;;-146.75;100.00
56514;BME280;62152;52.078;8.414;2023-01-31T16:51:50;66444.38;;;-146.75;100.00
56514;BME280;62152;52.078;8.414;2023-01-31T16:56:20;66444.38;;;-146.75;100.00
56514;BME280;62152;52.078;8.414;2023-01-31T17:00:32;66444.38;;;-146.75;100.00
56514;BME280;62152;52.078;8.414;2023-01-31T17:04:37;66444.38;;;-146.75;100.00
56514;BME280;62152;52.078;8.414;2023-01-31T17:08:41;66444.38;;;-146.75;100.00
56514;BME280;62152;52.078;8.414;2023-01-31T17:12:42;66444.38;;;-146.75;100.00
56514;BME280;62152;52.078;8.414;2023-01-31T17:16:43;66444.38;;;-146.75;100.00
56514;BME280;62152;52.078;8.414;2023-01-31T17:20:46;66444.38;;;-146.75;100.00
56514;BME280;62152;52.078;8.414;2023-01-31T17:24:49;66444.38;;;-146.75;100.00
56514;BME280;62152;52.078;8.414;2023-01-31T17:28:49;66444.38;;;-146.75;100.00
56514;BME280;62152;52.078;8.414;2023-01-31T17:32:50;66444.38;;;-146.75;100.00
56514;BME280;62152;52.078;8.414;2023-01-31T17:36:51;66444.38;;;-146.75;100.00
56514;BME280;62152;52.078;8.414;2023-01-31T17:40:53;66444.38;;;-146.75;100.00
56514;BME280;62152;52.078;8.414;2023-01-31T17:44:54;66444.38;;;-146.75;100.00
56514;BME280;62152;52.078;8.414;2023-01-31T17:48:54;66444.38;;;-146.75;100.00
56514;BME280;62152;52.078;8.414;2023-01-31T17:52:55;66444.38;;;-146.75;100.00
56514;BME280;62152;52.078;8.414;2023-01-31T17:56:57;66444.38;;;-146.75;100.00
56514;BME280;62152;52.078;8.414;2023-01-31T18:00:59;66444.38;;;-146.75;100.00
56514;BME280;62152;52.078;8.414;2023-01-31T18:05:00;66444.38;;;-146.75;100.00
56514;BME280;62152;52.078;8.414;2023-01-31T18:09:03;66444.38;;;-146.75;100.00
56514;BME280;62152;52.078;8.414;2023-01-31T18:13:06;66444.38;;;-146.75;100.00
56514;BME280;62152;52.078;8.414;2023-01-31T18:17:07;66444.38;;;-146.75;100.00
56514;BME280;62152;52.078;8.414;2023-01-31T18:21:08;66444.38;;;-146.75;100.00
56514;BME280;62152;52.078;8.414;2023-01-31T18:25:09;66444.38;;;-146.75;100.00
56514;BME280;62152;52.078;8.414;2023-01-31T18:29:11;66444.38;;;-146.75;100.00
56514;BME280;62152;52.078;8.414;2023-01-31T18:33:12;66444.38;;;-146.75;100.00
56514;BME280;62152;52.078;8.414;2023-01-31T18:37:13;66444.38;;;-146.75;100.00
56514;BME280;62152;52.078;8.414;2023-01-31T18:41:16;66444.38;;;-146.75;100.00
56514;BME280;62152;52.078;8.414;2023-01-31T18:45:18;66444.38;;;-146.75;100.00
56514;BME280;62152;52.078;8.414;2023-01-31T18:49:19;66444.38;;;-146.75;100.00
56514;BME280;62152;52.078;8.414;2023-01-31T18:53:19;66444.38;;;-146.75;100.00
56514;BME280;62152;52.078;8.414;2023-01-31T18:57:20;66444.38;;;-146.75;100.00
56514;BME280;62152;52.078;8.414;2023-01-31T19:01:24;66444.38;;;-146.75;100.00
56514;BME280;62152;52.078;8.414;2023-01-31T19:05:25;66444.38;;;-146.75;100.00
56514;BME280;62152;52.078;8.414;2023-01-31T19:09:26;66444.38;;;-146.75;100.00
56514;BME280;62152;52.078;8.414;2023-01-31T19:13:27;66444.38;;;-146.75;100.00
56514;BME280;62152;52.078;8.414;2023-01-31T19:17:29;66444.38;;;-146.75;100.00
56514;BME280;62152;52.078;8.414;2023-01-31T19:21:31;66444.38;;;-146.75;100.00
56514;BME280;62152;52.078;8.414;2023-01-31T19:25:36;66444.38;;;-146.75;100.00
56514;BME280;62152;52.078;8.414;2023-01-31T19:29:37;66444.38;;;-146.75;100.00
56514;BME280;62152;52.078;8.414;2023-01-31T19:33:39;66444.38;;;-146.75;100.00
56514;BME280;62152;52.078;8.414;2023-01-31T19:37:40;66444.38;;;-146.75;100.00
56514;BME280;62152;52.078;8.414;2023-01-31T19:41:41;66444.38;;;-146.75;100.00
56514;BME280;62152;52.078;8.414;2023-01-31T19:45:41;66444.38;;;-146.75;100.00
56514;BME280;62152;52.078;8.414;2023-01-31T19:49:43;66444.38;;;-146.75;100.00
56514;BME280;62152;52.078;8.414;2023-01-31T19:53:45;66444.38;;;-146.75;100.00
56514;BME280;62152;52.078;8.414;2023-01-31T19:57:46;66444.38;;;-146.75;100.00
56514;BME280;62152;52.078;8.414;2023-01-31T20:01:47;66444.38;;;-146.75;100.00
56514;BME280;62152;52.078;8.414;2023-01-31T20:05:49;66444.38;;;-146.75;100.00
56514;BME280;62152;52.078;8.414;2023-01-31T20:09:49;66444.38;;;-146.75;100.00
56514;BME280;62152;52.078;8.414;2023-01-31T20:13:52;66444.38;;;-146.75;100.00
56514;BME280;62152;52.078;8.414;2023-01-31T20:17:53;66444.38;;;-146.75;100.00
56514;BME280;62152;52.078;8.414;2023-01-31T20:21:55;66444.38;;;-146.75;100.00
56514;BME280;62152;52.078;8.414;2023-01-31T20:25:56;66444.38;;;-146.75;100.00
56514;BME280;62152;52.078;8.414;2023-01-31T20:29:57;66444.38;;;-146.75;100.00
56514;BME280;62152;52.078;8.414;2023-01-31T20:33:58;66444.38;;;-146.75;100.00
56514;BME280;62152;52.078;8.414;2023-01-31T20:38:00;66444.38;;;-146.75;100.00
56514;BME280;62152;52.078;8.414;2023-01-31T20:42:01;66444.38;;;-146.75;100.00
56514;BME280;62152;52.078;8.414;2023-01-31T20:46:03;66444.38;;;-146.75;100.00
56514;BME280;62152;52.078;8.414;2023-01-31T20:50:04;66444.38;;;-146.75;100.00
56514;BME280;62152;52.078;8.414;2023-01-31T20:54:06;66444.38;;;-146.75;100.00
56514;BME280;62152;52.078;8.414;2023-01-31T20:58:07;66444.38;;;-146.75;100.00
56514;BME280;62152;52.078;8.414;2023-01-31T21:02:08;66444.38;;;-146.75;100.00
56514;BME280;62152;52.078;8.414;2023-01-31T21:06:09;66444.38;;;-146.75;100.00
56514;BME280;62152;52.078;8.414;2023-01-31T21:10:12;66444.38;;;-146.75;100.00